sensor_id;sensor_type;location;lat;lon;timestamp;P1;durP1;ratioP1;P2;durP2;ratioP2
7191;SDS011;3637;51.494;11.958;2023-02-15T00:01:29;20.37;;;11.63;;
7191;SDS011;3637;51.494;11.958;2023-02-15T00:04:31;18.87;;;10.67;;
7191;SDS011;3637;51.494;11.958;2023-02-15T00:07:47;20.73;;;11.60;;
7191;SDS011;3637;51.494;11.958;2023-02-15T00:10:48;21.70;;;11.57;;
7191;SDS011;3637;51.494;11.958;2023-02-15T00:13:51;24.00;;;11.67;;
7191;SDS011;3637;51.494;11.958;2023-02-15T00:16:54;19.03;;;10.80;;
7191;SDS011;3637;51.494;11.958;2023-02-15T00:19:59;22.83;;;12.10;;
7191;SDS011;3637;51.494;11.958;2023-02-15T00:23:02;20.37;;;12.20;;
7191;SDS011;3637;51.494;11.958;2023-02-15T00:26:04;21.33;;;10.67;;
7191;SDS011;3637;51.494;11.958;2023-02-15T00:29:08;20.10;;;11.30;;
7191;SDS011;3637;51.494;11.958;2023-02-15T00:32:12;19.73;;;11.20;;
7191;SDS011;3637;51.494;11.958;2023-02-15T00:35:14;17.60;;;9.97;;
7191;SDS011;3637;51.494;11.958;2023-02-15T00:38:16;20.60;;;11.27;;
7191;SDS011;3637;51.494;11.958;2023-02-15T00:41:18;23.27;;;11.30;;
7191;SDS011;3637;51.494;11.958;2023-02-15T00:44:20;19.43;;;10.87;;
7191;SDS011;3637;51.494;11.958;2023-02-15T00:47:23;21.43;;;11.53;;
7191;SDS011;3637;51.494;11.958;2023-02-15T00:50:25;17.97;;;10.63;;
7191;SDS011;3637;51.494;11.958;2023-02-15T00:53:30;22.03;;;11.43;;
7191;SDS011;3637;51.494;11.958;2023-02-15T00:56:35;18.53;;;11.13;;
7191;SDS011;3637;51.494;11.958;2023-02-15T00:59:37;20.30;;;9.90;;
7191;SDS011;3637;51.494;11.958;2023-02-15T01:02:40;16.47;;;8.77;;
7191;SDS011;3637;51.494;11.958;2023-02-15T01:05:46;23.73;;;11.23;;
7191;SDS011;3637;51.494;11.958;2023-02-15T01:08:50;16.33;;;9.63;;
7191;SDS011;3637;51.494;11.958;2023-02-15T01:11:52;16.43;;;9.17;;
7191;SDS011;3637;51.494;11.958;2023-02-15T01:14:54;17.10;;;9.13;;
7191;SDS011;3637;51.494;11.958;2023-02-15T01:17:57;17.10;;;10.57;;
7191;SDS011;3637;51.494;11.958;2023-02-15T01:20:59;18.93;;;11.10;;
7191;SDS011;3637;51.494;11.958;2023-02-15T01:24:11;18.23;;;10.67;;
7191;SDS011;3637;51.494;11.958;2023-02-15T01:27:13;17.20;;;9.80;;
7191;SDS011;3637;51.494;11.958;2023-02-15T01:30:15;14.87;;;9.83;;
7191;SDS011;3637;51.494;11.958;2023-02-15T01:33:19;30.10;;;8.77;;
7191;SDS011;3637;51.494;11.958;2023-02-15T01:36:22;18.07;;;7.63;;
7191;SDS011;3637;51.494;11.958;2023-02-15T01:39:24;37.67;;;10.17;;
7191;SDS011;3637;51.494;11.958;2023-02-15T01:42:29;35.37;;;9.60;;
7191;SDS011;3637;51.494;11.958;2023-02-15T01:45:32;19.23;;;10.73;;
7191;SDS011;3637;51.494;11.958;2023-02-15T01:48:36;41.17;;;10.10;;
7191;SDS011;3637;51.494;11.958;2023-02-15T01:51:47;22.27;;;9.20;;
7191;SDS011;3637;51.494;11.958;2023-02-15T01:54:53;18.47;;;9.00;;
7191;SDS011;3637;51.494;11.958;2023-02-15T01:57:55;40.23;;;9.17;;
7191;SDS011;3637;51.494;11.958;2023-02-15T02:00:59;25.17;;;8.53;;
7191;SDS011;3637;51.494;11.958;2023-02-15T02:04:08;18.20;;;9.87;;
7191;SDS011;3637;51.494;11.958;2023-02-15T02:07:13;22.63;;;9.07;;
7191;SDS011;3637;51.494;11.958;2023-02-15T02:10:22;24.60;;;9.57;;
7191;SDS011;3637;51.494;11.958;2023-02-15T02:13:27;32.07;;;10.10;;
7191;SDS011;3637;51.494;11.958;2023-02-15T02:16:32;23.43;;;8.83;;
7191;SDS011;3637;51.494;11.958;2023-02-15T02:19:53;40.30;;;9.03;;
7191;SDS011;3637;51.494;11.958;2023-02-15T02:27:00;22.13;;;9.57;;
7191;SDS011;3637;51.494;11.958;2023-02-15T02:30:35;54.97;;;9.43;;
7191;SDS011;3637;51.494;11.958;2023-02-15T02:34:03;26.93;;;8.83;;
7191;SDS011;3637;51.494;11.958;2023-02-15T02:37:16;34.40;;;9.30;;
7191;SDS011;3637;51.494;11.958;2023-02-15T02:40:25;22.50;;;8.93;;
7191;SDS011;3637;51.494;11.958;2023-02-15T02:43:38;40.33;;;9.03;;
7191;SDS011;3637;51.494;11.958;2023-02-15T02:46:48;23.10;;;7.83;;
7191;SDS011;3637;51.494;11.958;2023-02-15T02:49:59;41.77;;;9.50;;
7191;SDS011;3637;51.494;11.958;2023-02-15T02:53:03;41.23;;;9.07;;
7191;SDS011;3637;51.494;11.958;2023-02-15T02:56:06;44.60;;;8.53;;
7191;SDS011;3637;51.494;11.958;2023-02-15T02:59:13;26.27;;;8.43;;
7191;SDS011;3637;51.494;11.958;2023-02-15T03:02:21;37.90;;;9.17;;
7191;SDS011;3637;51.494;11.958;2023-02-15T03:05:27;33.27;;;8.17;;
7191;SDS011;3637;51.494;11.958;2023-02-15T03:08:32;24.07;;;8.07;;
7191;SDS011;3637;51.494;11.958;2023-02-15T03:11:38;20.70;;;8.97;;
7191;SDS011;3637;51.494;11.958;2023-02-15T03:14:40;28.67;;;7.83;;
7191;SDS011;3637;51.494;11.958;2023-02-15T03:17:45;11.73;;;5.77;;
7191;SDS011;3637;51.494;11.958;2023-02-15T03:20:51;15.37;;;7.53;;
7191;SDS011;3637;51.494;11.958;2023-02-15T03:23:56;11.60;;;7.00;;
7191;SDS011;3637;51.494;11.958;2023-02-15T03:27:02;15.80;;;6.43;;
7191;SDS011;3637;51.494;11.958;2023-02-15T03:30:07;20.97;;;7.27;;
7191;SDS011;3637;51.494;11.958;2023-02-15T03:33:11;10.37;;;5.50;;
7191;SDS011;3637;51.494;11.958;2023-02-15T03:36:19;13.20;;;5.73;;
7191;SDS011;3637;51.494;11.958;2023-02-15T03:39:25;19.60;;;6.43;;
7191;SDS011;3637;51.494;11.958;2023-02-15T03:42:32;11.43;;;6.10;;
7191;SDS011;3637;51.494;11.958;2023-02-15T03:45:40;16.40;;;6.60;;
7191;SDS011;3637;51.494;11.958;2023-02-15T03:48:55;9.53;;;6.73;;
7191;SDS011;3637;51.494;11.958;2023-02-15T03:52:03;15.23;;;6.00;;
7191;SDS011;3637;51.494;11.958;2023-02-15T03:55:08;8.10;;;5.87;;
7191;SDS011;3637;51.494;11.958;2023-02-15T03:58:12;7.07;;;5.10;;
7191;SDS011;3637;51.494;11.958;2023-02-15T04:01:32;7.63;;;5.00;;
7191;SDS011;3637;51.494;11.958;2023-02-15T04:04:58;6.30;;;4.73;;
7191;SDS011;3637;51.494;11.958;2023-02-15T04:08:01;5.57;;;4.63;;
7191;SDS011;3637;51.494;11.958;2023-02-15T04:11:04;7.50;;;5.53;;
7191;SDS011;3637;51.494;11.958;2023-02-15T04:14:05;6.80;;;4.30;;
7191;SDS011;3637;51.494;11.958;2023-02-15T04:17:22;8.73;;;5.20;;
7191;SDS011;3637;51.494;11.958;2023-02-15T04:20:24;5.57;;;3.70;;
7191;SDS011;3637;51.494;11.958;2023-02-15T04:23:48;6.40;;;4.57;;
7191;SDS011;3637;51.494;11.958;2023-02-15T04:27:07;5.90;;;3.80;;
7191;SDS011;3637;51.494;11.958;2023-02-15T04:30:13;7.77;;;4.43;;
7191;SDS011;3637;51.494;11.958;2023-02-15T04:33:19;6.07;;;4.10;;
7191;SDS011;3637;51.494;11.958;2023-02-15T04:36:21;6.20;;;4.37;;
7191;SDS011;3637;51.494;11.958;2023-02-15T04:39:24;4.63;;;4.00;;
7191;SDS011;3637;51.494;11.958;2023-02-15T04:42:29;5.33;;;4.43;;
7191;SDS011;3637;51.494;11.958;2023-02-15T04:45:31;6.53;;;4.17;;
7191;SDS011;3637;51.494;11.958;2023-02-15T04:48:33;6.97;;;4.00;;
7191;SDS011;3637;51.494;11.958;2023-02-15T04:51:38;4.77;;;3.77;;
7191;SDS011;3637;51.494;11.958;2023-02-15T04:54:42;5.03;;;3.73;;
7191;SDS011;3637;51.494;11.958;2023-02-15T04:57:45;7.23;;;4.27;;
7191;SDS011;3637;51.494;11.958;2023-02-15T05:00:47;6.23;;;4.37;;
7191;SDS011;3637;51.494;11.958;2023-02-15T05:03:49;7.50;;;4.90;;
7191;SDS011;3637;51.494;11.958;2023-02-15T05:06:51;7.03;;;4.37;;
7191;SDS011;3637;51.494;11.958;2023-02-15T05:09:58;7.10;;;3.87;;
7191;SDS011;3637;51.494;11.958;2023-02-15T05:13:00;7.07;;;5.27;;
7191;SDS011;3637;51.494;11.958;2023-02-15T05:16:02;7.27;;;4.30;;
7191;SDS011;3637;51.494;11.958;2023-02-15T05:19:04;5.43;;;4.00;;
7191;SDS011;3637;51.494;11.958;2023-02-15T05:22:06;3.70;;;3.20;;
7191;SDS011;3637;51.494;11.958;2023-02-15T05:25:15;6.37;;;4.00;;
7191;SDS011;3637;51.494;11.958;2023-02-15T05:28:36;6.33;;;4.03;;
7191;SDS011;3637;51.494;11.958;2023-02-15T05:31:38;4.97;;;3.90;;
7191;SDS011;3637;51.494;11.958;2023-02-15T05:34:40;4.57;;;3.57;;
7191;SDS011;3637;51.494;11.958;2023-02-15T05:37:42;4.73;;;3.70;;
7191;SDS011;3637;51.494;11.958;2023-02-15T05:40:48;6.13;;;3.60;;
7191;SDS011;3637;51.494;11.958;2023-02-15T05:43:54;10.50;;;3.33;;
7191;SDS011;3637;51.494;11.958;2023-02-15T05:46:56;6.30;;;4.37;;
7191;SDS011;3637;51.494;11.958;2023-02-15T05:49:58;5.40;;;4.00;;
7191;SDS011;3637;51.494;11.958;2023-02-15T05:53:03;6.30;;;3.87;;
7191;SDS011;3637;51.494;11.958;2023-02-15T05:56:09;5.73;;;4.27;;
7191;SDS011;3637;51.494;11.958;2023-02-15T05:59:12;5.30;;;3.97;;
7191;SDS011;3637;51.494;11.958;2023-02-15T06:02:14;6.47;;;3.90;;
7191;SDS011;3637;51.494;11.958;2023-02-15T06:05:16;6.40;;;4.10;;
7191;SDS011;3637;51.494;11.958;2023-02-15T06:08:18;4.83;;;3.77;;
7191;SDS011;3637;51.494;11.958;2023-02-15T06:11:21;4.00;;;3.60;;
7191;SDS011;3637;51.494;11.958;2023-02-15T06:14:24;4.67;;;3.60;;
7191;SDS011;3637;51.494;11.958;2023-02-15T06:17:27;5.10;;;3.77;;
7191;SDS011;3637;51.494;11.958;2023-02-15T06:20:29;14.83;;;3.73;;
7191;SDS011;3637;51.494;11.958;2023-02-15T06:23:31;5.43;;;3.83;;
7191;SDS011;3637;51.494;11.958;2023-02-15T06:26:34;5.33;;;3.93;;
7191;SDS011;3637;51.494;11.958;2023-02-15T06:29:36;6.90;;;4.20;;
7191;SDS011;3637;51.494;11.958;2023-02-15T06:32:38;5.27;;;3.67;;
7191;SDS011;3637;51.494;11.958;2023-02-15T06:35:42;5.73;;;3.40;;
7191;SDS011;3637;51.494;11.958;2023-02-15T06:38:43;4.63;;;3.50;;
7191;SDS011;3637;51.494;11.958;2023-02-15T06:41:47;4.33;;;3.37;;
7191;SDS011;3637;51.494;11.958;2023-02-15T06:44:48;5.63;;;3.83;;
7191;SDS011;3637;51.494;11.958;2023-02-15T06:47:50;15.20;;;4.73;;
7191;SDS011;3637;51.494;11.958;2023-02-15T06:50:52;4.40;;;3.40;;
7191;SDS011;3637;51.494;11.958;2023-02-15T06:53:54;8.63;;;3.47;;
7191;SDS011;3637;51.494;11.958;2023-02-15T06:56:57;8.67;;;3.97;;
7191;SDS011;3637;51.494;11.958;2023-02-15T06:59:59;4.87;;;3.57;;
7191;SDS011;3637;51.494;11.958;2023-02-15T07:03:02;5.93;;;3.90;;
7191;SDS011;3637;51.494;11.958;2023-02-15T07:06:04;4.27;;;3.50;;
7191;SDS011;3637;51.494;11.958;2023-02-15T07:09:08;5.13;;;4.00;;
7191;SDS011;3637;51.494;11.958;2023-02-15T07:12:12;6.53;;;4.43;;
7191;SDS011;3637;51.494;11.958;2023-02-15T07:15:33;5.10;;;3.70;;
7191;SDS011;3637;51.494;11.958;2023-02-15T07:18:35;5.97;;;3.90;;
7191;SDS011;3637;51.494;11.958;2023-02-15T07:21:37;6.37;;;4.03;;
7191;SDS011;3637;51.494;11.958;2023-02-15T07:24:39;7.20;;;4.83;;
7191;SDS011;3637;51.494;11.958;2023-02-15T07:27:42;5.93;;;4.17;;
7191;SDS011;3637;51.494;11.958;2023-02-15T07:30:44;5.20;;;4.27;;
7191;SDS011;3637;51.494;11.958;2023-02-15T07:33:47;5.57;;;3.97;;
7191;SDS011;3637;51.494;11.958;2023-02-15T07:36:50;6.30;;;3.87;;
7191;SDS011;3637;51.494;11.958;2023-02-15T07:39:53;4.00;;;3.40;;
7191;SDS011;3637;51.494;11.958;2023-02-15T07:42:57;14.63;;;5.37;;
7191;SDS011;3637;51.494;11.958;2023-02-15T07:45:59;7.07;;;4.93;;
7191;SDS011;3637;51.494;11.958;2023-02-15T07:49:01;6.57;;;4.67;;
7191;SDS011;3637;51.494;11.958;2023-02-15T07:52:03;7.70;;;4.70;;
7191;SDS011;3637;51.494;11.958;2023-02-15T07:55:05;6.80;;;5.17;;
7191;SDS011;3637;51.494;11.958;2023-02-15T07:58:10;5.97;;;4.50;;
7191;SDS011;3637;51.494;11.958;2023-02-15T08:01:11;6.43;;;5.17;;
7191;SDS011;3637;51.494;11.958;2023-02-15T08:04:13;8.77;;;5.90;;
7191;SDS011;3637;51.494;11.958;2023-02-15T08:07:15;7.83;;;5.20;;
7191;SDS011;3637;51.494;11.958;2023-02-15T08:10:17;6.43;;;5.20;;
7191;SDS011;3637;51.494;11.958;2023-02-15T08:13:40;7.80;;;5.50;;
7191;SDS011;3637;51.494;11.958;2023-02-15T08:16:53;5.83;;;4.33;;
7191;SDS011;3637;51.494;11.958;2023-02-15T08:19:56;8.90;;;5.43;;
7191;SDS011;3637;51.494;11.958;2023-02-15T08:22:58;9.00;;;5.23;;
7191;SDS011;3637;51.494;11.958;2023-02-15T08:26:00;7.77;;;4.80;;
7191;SDS011;3637;51.494;11.958;2023-02-15T08:29:03;7.00;;;4.93;;
7191;SDS011;3637;51.494;11.958;2023-02-15T08:32:05;8.00;;;5.87;;
7191;SDS011;3637;51.494;11.958;2023-02-15T08:35:09;9.97;;;5.47;;
7191;SDS011;3637;51.494;11.958;2023-02-15T08:38:11;11.57;;;5.20;;
7191;SDS011;3637;51.494;11.958;2023-02-15T08:41:14;8.73;;;5.47;;
7191;SDS011;3637;51.494;11.958;2023-02-15T08:44:20;7.07;;;5.13;;
7191;SDS011;3637;51.494;11.958;2023-02-15T08:47:22;6.87;;;5.30;;
7191;SDS011;3637;51.494;11.958;2023-02-15T08:50:24;8.50;;;5.77;;
7191;SDS011;3637;51.494;11.958;2023-02-15T08:53:28;9.17;;;5.83;;
7191;SDS011;3637;51.494;11.958;2023-02-15T08:56:32;9.60;;;5.63;;
7191;SDS011;3637;51.494;11.958;2023-02-15T08:59:36;8.20;;;5.97;;
7191;SDS011;3637;51.494;11.958;2023-02-15T09:02:38;8.20;;;5.40;;
7191;SDS011;3637;51.494;11.958;2023-02-15T09:05:40;7.20;;;5.63;;
7191;SDS011;3637;51.494;11.958;2023-02-15T09:08:42;7.20;;;5.17;;
7191;SDS011;3637;51.494;11.958;2023-02-15T09:11:44;7.53;;;5.50;;
7191;SDS011;3637;51.494;11.958;2023-02-15T09:14:49;7.87;;;4.97;;
7191;SDS011;3637;51.494;11.958;2023-02-15T09:17:51;7.53;;;5.07;;
7191;SDS011;3637;51.494;11.958;2023-02-15T09:20:55;9.97;;;5.03;;
7191;SDS011;3637;51.494;11.958;2023-02-15T09:23:58;6.20;;;4.83;;
7191;SDS011;3637;51.494;11.958;2023-02-15T09:27:03;8.70;;;5.73;;
7191;SDS011;3637;51.494;11.958;2023-02-15T09:30:07;9.17;;;6.57;;
7191;SDS011;3637;51.494;11.958;2023-02-15T09:33:09;8.83;;;5.83;;
7191;SDS011;3637;51.494;11.958;2023-02-15T09:36:14;7.63;;;5.57;;
7191;SDS011;3637;51.494;11.958;2023-02-15T09:39:18;7.73;;;5.57;;
7191;SDS011;3637;51.494;11.958;2023-02-15T09:45:57;7.57;;;5.67;;
7191;SDS011;3637;51.494;11.958;2023-02-15T09:49:15;8.07;;;5.10;;
7191;SDS011;3637;51.494;11.958;2023-02-15T09:55:51;7.97;;;5.50;;
7191;SDS011;3637;51.494;11.958;2023-02-15T09:58:58;7.23;;;5.13;;
7191;SDS011;3637;51.494;11.958;2023-02-15T10:02:11;6.77;;;5.07;;
7191;SDS011;3637;51.494;11.958;2023-02-15T10:05:28;7.60;;;5.20;;
7191;SDS011;3637;51.494;11.958;2023-02-15T10:08:43;7.07;;;5.23;;
7191;SDS011;3637;51.494;11.958;2023-02-15T10:12:06;7.27;;;5.33;;
7191;SDS011;3637;51.494;11.958;2023-02-15T10:15:27;8.70;;;5.67;;
7191;SDS011;3637;51.494;11.958;2023-02-15T10:18:46;6.07;;;4.37;;
7191;SDS011;3637;51.494;11.958;2023-02-15T10:21:58;6.07;;;5.03;;
7191;SDS011;3637;51.494;11.958;2023-02-15T10:25:15;8.63;;;6.03;;
7191;SDS011;3637;51.494;11.958;2023-02-15T10:28:34;8.20;;;5.40;;
7191;SDS011;3637;51.494;11.958;2023-02-15T10:31:45;7.40;;;5.30;;
7191;SDS011;3637;51.494;11.958;2023-02-15T10:34:52;7.63;;;5.37;;
7191;SDS011;3637;51.494;11.958;2023-02-15T10:38:03;7.80;;;5.20;;
7191;SDS011;3637;51.494;11.958;2023-02-15T10:41:17;8.83;;;5.90;;
7191;SDS011;3637;51.494;11.958;2023-02-15T10:44:32;7.83;;;5.30;;
7191;SDS011;3637;51.494;11.958;2023-02-15T10:51:15;7.97;;;5.00;;
7191;SDS011;3637;51.494;11.958;2023-02-15T10:54:26;8.07;;;4.90;;
7191;SDS011;3637;51.494;11.958;2023-02-15T10:57:39;8.07;;;5.40;;
7191;SDS011;3637;51.494;11.958;2023-02-15T11:00:51;7.23;;;5.20;;
7191;SDS011;3637;51.494;11.958;2023-02-15T11:04:08;7.97;;;5.17;;
7191;SDS011;3637;51.494;11.958;2023-02-15T11:07:33;10.67;;;5.30;;
7191;SDS011;3637;51.494;11.958;2023-02-15T11:10:39;7.17;;;4.93;;
7191;SDS011;3637;51.494;11.958;2023-02-15T11:13:45;7.10;;;5.20;;
7191;SDS011;3637;51.494;11.958;2023-02-15T11:16:50;7.60;;;5.03;;
7191;SDS011;3637;51.494;11.958;2023-02-15T11:19:58;8.70;;;5.10;;
7191;SDS011;3637;51.494;11.958;2023-02-15T11:23:08;6.37;;;4.87;;
7191;SDS011;3637;51.494;11.958;2023-02-15T11:26:17;6.43;;;4.40;;
7191;SDS011;3637;51.494;11.958;2023-02-15T11:29:23;5.83;;;4.27;;
7191;SDS011;3637;51.494;11.958;2023-02-15T11:32:30;8.87;;;5.70;;
7191;SDS011;3637;51.494;11.958;2023-02-15T11:35:36;6.80;;;5.03;;
7191;SDS011;3637;51.494;11.958;2023-02-15T11:38:43;10.23;;;5.37;;
7191;SDS011;3637;51.494;11.958;2023-02-15T11:41:49;6.87;;;5.07;;
7191;SDS011;3637;51.494;11.958;2023-02-15T11:44:56;8.23;;;6.50;;
7191;SDS011;3637;51.494;11.958;2023-02-15T11:48:07;7.53;;;4.90;;
7191;SDS011;3637;51.494;11.958;2023-02-15T11:51:12;6.73;;;4.77;;
7191;SDS011;3637;51.494;11.958;2023-02-15T11:54:18;9.40;;;5.90;;
7191;SDS011;3637;51.494;11.958;2023-02-15T11:57:31;6.83;;;5.07;;
7191;SDS011;3637;51.494;11.958;2023-02-15T12:00:39;6.80;;;4.80;;
7191;SDS011;3637;51.494;11.958;2023-02-15T12:03:44;7.53;;;5.10;;
7191;SDS011;3637;51.494;11.958;2023-02-15T12:06:49;6.37;;;4.97;;
7191;SDS011;3637;51.494;11.958;2023-02-15T12:09:59;9.53;;;4.80;;
7191;SDS011;3637;51.494;11.958;2023-02-15T12:13:10;10.50;;;6.00;;
7191;SDS011;3637;51.494;11.958;2023-02-15T12:16:14;8.13;;;5.10;;
7191;SDS011;3637;51.494;11.958;2023-02-15T12:22:41;5.80;;;4.43;;
7191;SDS011;3637;51.494;11.958;2023-02-15T12:25:53;6.03;;;4.10;;
7191;SDS011;3637;51.494;11.958;2023-02-15T12:28:58;7.53;;;4.60;;
7191;SDS011;3637;51.494;11.958;2023-02-15T12:32:02;7.80;;;5.13;;
7191;SDS011;3637;51.494;11.958;2023-02-15T12:35:07;5.73;;;4.60;;
7191;SDS011;3637;51.494;11.958;2023-02-15T12:38:19;7.43;;;4.43;;
7191;SDS011;3637;51.494;11.958;2023-02-15T12:41:25;6.90;;;4.40;;
7191;SDS011;3637;51.494;11.958;2023-02-15T12:44:28;5.90;;;4.23;;
7191;SDS011;3637;51.494;11.958;2023-02-15T12:47:31;5.10;;;4.07;;
7191;SDS011;3637;51.494;11.958;2023-02-15T12:50:33;5.00;;;3.73;;
7191;SDS011;3637;51.494;11.958;2023-02-15T12:53:36;5.17;;;3.87;;
7191;SDS011;3637;51.494;11.958;2023-02-15T12:56:41;5.67;;;4.30;;
7191;SDS011;3637;51.494;11.958;2023-02-15T12:59:47;7.50;;;3.80;;
7191;SDS011;3637;51.494;11.958;2023-02-15T13:02:51;7.47;;;3.97;;
7191;SDS011;3637;51.494;11.958;2023-02-15T13:05:55;5.33;;;4.43;;
7191;SDS011;3637;51.494;11.958;2023-02-15T13:09:05;5.90;;;4.30;;
7191;SDS011;3637;51.494;11.958;2023-02-15T13:12:20;4.07;;;3.40;;
7191;SDS011;3637;51.494;11.958;2023-02-15T13:15:34;5.03;;;3.70;;
7191;SDS011;3637;51.494;11.958;2023-02-15T13:18:40;4.77;;;3.50;;
7191;SDS011;3637;51.494;11.958;2023-02-15T13:21:46;8.53;;;3.87;;
7191;SDS011;3637;51.494;11.958;2023-02-15T13:24:51;5.63;;;3.70;;
7191;SDS011;3637;51.494;11.958;2023-02-15T13:28:06;4.00;;;3.03;;
7191;SDS011;3637;51.494;11.958;2023-02-15T13:31:12;4.23;;;3.60;;
7191;SDS011;3637;51.494;11.958;2023-02-15T13:34:18;8.77;;;3.30;;
7191;SDS011;3637;51.494;11.958;2023-02-15T13:37:29;5.03;;;3.53;;
7191;SDS011;3637;51.494;11.958;2023-02-15T13:40:43;4.30;;;3.10;;
7191;SDS011;3637;51.494;11.958;2023-02-15T13:43:56;4.67;;;3.40;;
7191;SDS011;3637;51.494;11.958;2023-02-15T13:47:11;4.43;;;3.10;;
7191;SDS011;3637;51.494;11.958;2023-02-15T13:50:29;4.63;;;3.30;;
7191;SDS011;3637;51.494;11.958;2023-02-15T13:54:01;4.27;;;3.10;;
7191;SDS011;3637;51.494;11.958;2023-02-15T13:57:25;4.30;;;3.20;;
7191;SDS011;3637;51.494;11.958;2023-02-15T14:00:46;4.40;;;3.13;;
7191;SDS011;3637;51.494;11.958;2023-02-15T14:04:03;3.53;;;2.97;;
7191;SDS011;3637;51.494;11.958;2023-02-15T14:07:32;3.70;;;2.93;;
7191;SDS011;3637;51.494;11.958;2023-02-15T14:10:51;4.27;;;3.10;;
7191;SDS011;3637;51.494;11.958;2023-02-15T14:14:15;3.70;;;3.20;;
7191;SDS011;3637;51.494;11.958;2023-02-15T14:17:43;4.47;;;3.37;;
7191;SDS011;3637;51.494;11.958;2023-02-15T14:21:02;5.33;;;4.20;;
7191;SDS011;3637;51.494;11.958;2023-02-15T14:24:14;6.67;;;3.23;;
7191;SDS011;3637;51.494;11.958;2023-02-15T14:27:34;4.37;;;3.20;;
7191;SDS011;3637;51.494;11.958;2023-02-15T14:30:44;4.73;;;3.40;;
7191;SDS011;3637;51.494;11.958;2023-02-15T14:33:52;4.67;;;3.10;;
7191;SDS011;3637;51.494;11.958;2023-02-15T14:36:56;4.97;;;3.30;;
7191;SDS011;3637;51.494;11.958;2023-02-15T14:40:00;3.63;;;2.87;;
7191;SDS011;3637;51.494;11.958;2023-02-15T14:43:27;3.90;;;2.83;;
7191;SDS011;3637;51.494;11.958;2023-02-15T14:46:37;5.17;;;2.87;;
7191;SDS011;3637;51.494;11.958;2023-02-15T14:49:46;8.17;;;2.93;;
7191;SDS011;3637;51.494;11.958;2023-02-15T14:56:22;4.40;;;3.10;;
7191;SDS011;3637;51.494;11.958;2023-02-15T14:59:35;4.13;;;2.80;;
7191;SDS011;3637;51.494;11.958;2023-02-15T15:02:43;4.47;;;3.10;;
7191;SDS011;3637;51.494;11.958;2023-02-15T15:05:51;4.27;;;3.00;;
7191;SDS011;3637;51.494;11.958;2023-02-15T15:08:55;4.20;;;3.07;;
7191;SDS011;3637;51.494;11.958;2023-02-15T15:12:14;4.37;;;2.83;;
7191;SDS011;3637;51.494;11.958;2023-02-15T15:15:44;4.90;;;3.27;;
7191;SDS011;3637;51.494;11.958;2023-02-15T15:18:47;7.13;;;3.87;;
7191;SDS011;3637;51.494;11.958;2023-02-15T15:21:58;3.17;;;2.70;;
7191;SDS011;3637;51.494;11.958;2023-02-15T15:25:07;4.37;;;3.10;;
7191;SDS011;3637;51.494;11.958;2023-02-15T15:31:47;4.57;;;3.23;;
7191;SDS011;3637;51.494;11.958;2023-02-15T15:35:00;4.57;;;3.00;;
7191;SDS011;3637;51.494;11.958;2023-02-15T15:38:16;4.17;;;2.77;;
7191;SDS011;3637;51.494;11.958;2023-02-15T15:41:32;3.80;;;3.10;;
7191;SDS011;3637;51.494;11.958;2023-02-15T15:44:52;5.37;;;3.50;;
7191;SDS011;3637;51.494;11.958;2023-02-15T15:48:08;3.40;;;2.80;;
7191;SDS011;3637;51.494;11.958;2023-02-15T15:51:29;4.97;;;3.03;;
7191;SDS011;3637;51.494;11.958;2023-02-15T15:54:34;3.90;;;3.17;;
7191;SDS011;3637;51.494;11.958;2023-02-15T15:57:41;4.70;;;3.30;;
7191;SDS011;3637;51.494;11.958;2023-02-15T16:00:46;4.63;;;3.00;;
7191;SDS011;3637;51.494;11.958;2023-02-15T16:03:51;4.90;;;2.90;;
7191;SDS011;3637;51.494;11.958;2023-02-15T16:06:55;4.60;;;3.00;;
7191;SDS011;3637;51.494;11.958;2023-02-15T16:09:59;4.60;;;3.27;;
7191;SDS011;3637;51.494;11.958;2023-02-15T16:13:04;4.00;;;3.23;;
7191;SDS011;3637;51.494;11.958;2023-02-15T16:16:07;8.40;;;3.53;;
7191;SDS011;3637;51.494;11.958;2023-02-15T16:19:14;5.50;;;3.97;;
7191;SDS011;3637;51.494;11.958;2023-02-15T16:22:20;4.63;;;3.23;;
7191;SDS011;3637;51.494;11.958;2023-02-15T16:25:36;4.33;;;3.00;;
7191;SDS011;3637;51.494;11.958;2023-02-15T16:28:48;4.40;;;3.27;;
7191;SDS011;3637;51.494;11.958;2023-02-15T16:31:57;4.10;;;3.30;;
7191;SDS011;3637;51.494;11.958;2023-02-15T16:35:01;4.10;;;3.20;;
7191;SDS011;3637;51.494;11.958;2023-02-15T16:38:04;9.50;;;3.80;;
7191;SDS011;3637;51.494;11.958;2023-02-15T16:41:10;9.03;;;3.63;;
7191;SDS011;3637;51.494;11.958;2023-02-15T16:44:15;4.27;;;3.43;;
7191;SDS011;3637;51.494;11.958;2023-02-15T16:47:19;6.87;;;3.73;;
7191;SDS011;3637;51.494;11.958;2023-02-15T16:50:25;5.70;;;3.67;;
7191;SDS011;3637;51.494;11.958;2023-02-15T16:53:31;4.80;;;3.60;;
7191;SDS011;3637;51.494;11.958;2023-02-15T16:56:35;5.10;;;3.90;;
7191;SDS011;3637;51.494;11.958;2023-02-15T16:59:39;5.10;;;3.40;;
7191;SDS011;3637;51.494;11.958;2023-02-15T17:02:52;7.23;;;3.73;;
7191;SDS011;3637;51.494;11.958;2023-02-15T17:05:56;8.90;;;3.63;;
7191;SDS011;3637;51.494;11.958;2023-02-15T17:09:02;8.57;;;3.90;;
7191;SDS011;3637;51.494;11.958;2023-02-15T17:12:08;5.50;;;3.33;;
7191;SDS011;3637;51.494;11.958;2023-02-15T17:15:24;5.47;;;3.70;;
7191;SDS011;3637;51.494;11.958;2023-02-15T17:18:27;8.40;;;3.87;;
7191;SDS011;3637;51.494;11.958;2023-02-15T17:21:31;7.83;;;3.77;;
7191;SDS011;3637;51.494;11.958;2023-02-15T17:24:37;9.27;;;3.80;;
7191;SDS011;3637;51.494;11.958;2023-02-15T17:27:44;6.60;;;4.23;;
7191;SDS011;3637;51.494;11.958;2023-02-15T17:30:52;8.83;;;4.30;;
7191;SDS011;3637;51.494;11.958;2023-02-15T17:33:56;9.03;;;3.87;;
7191;SDS011;3637;51.494;11.958;2023-02-15T17:36:58;5.70;;;4.23;;
7191;SDS011;3637;51.494;11.958;2023-02-15T17:40:07;7.00;;;4.00;;
7191;SDS011;3637;51.494;11.958;2023-02-15T17:43:19;6.57;;;4.47;;
7191;SDS011;3637;51.494;11.958;2023-02-15T17:46:20;5.13;;;3.73;;
7191;SDS011;3637;51.494;11.958;2023-02-15T17:49:24;5.30;;;3.50;;
7191;SDS011;3637;51.494;11.958;2023-02-15T17:52:35;5.53;;;4.07;;
7191;SDS011;3637;51.494;11.958;2023-02-15T17:55:38;5.53;;;4.20;;
7191;SDS011;3637;51.494;11.958;2023-02-15T17:58:41;7.53;;;4.20;;
7191;SDS011;3637;51.494;11.958;2023-02-15T18:01:44;6.17;;;4.70;;
7191;SDS011;3637;51.494;11.958;2023-02-15T18:05:07;6.73;;;4.60;;
7191;SDS011;3637;51.494;11.958;2023-02-15T18:08:32;5.40;;;4.53;;
7191;SDS011;3637;51.494;11.958;2023-02-15T18:11:53;7.27;;;4.47;;
7191;SDS011;3637;51.494;11.958;2023-02-15T18:15:11;5.87;;;4.87;;
7191;SDS011;3637;51.494;11.958;2023-02-15T18:18:27;9.80;;;6.30;;
7191;SDS011;3637;51.494;11.958;2023-02-15T18:21:37;11.77;;;5.77;;
7191;SDS011;3637;51.494;11.958;2023-02-15T18:24:42;9.73;;;5.87;;
7191;SDS011;3637;51.494;11.958;2023-02-15T18:27:48;9.17;;;5.40;;
7191;SDS011;3637;51.494;11.958;2023-02-15T18:30:59;7.20;;;5.30;;
7191;SDS011;3637;51.494;11.958;2023-02-15T18:34:06;9.63;;;5.77;;
7191;SDS011;3637;51.494;11.958;2023-02-15T18:37:25;6.80;;;4.97;;
7191;SDS011;3637;51.494;11.958;2023-02-15T18:40:35;5.70;;;4.63;;
7191;SDS011;3637;51.494;11.958;2023-02-15T18:43:41;6.97;;;4.70;;
7191;SDS011;3637;51.494;11.958;2023-02-15T18:46:47;7.03;;;4.87;;
7191;SDS011;3637;51.494;11.958;2023-02-15T18:49:49;8.00;;;4.87;;
7191;SDS011;3637;51.494;11.958;2023-02-15T18:52:54;6.73;;;5.00;;
7191;SDS011;3637;51.494;11.958;2023-02-15T18:55:56;7.90;;;4.67;;
7191;SDS011;3637;51.494;11.958;2023-02-15T18:59:01;6.50;;;4.93;;
7191;SDS011;3637;51.494;11.958;2023-02-15T19:02:11;11.87;;;7.03;;
7191;SDS011;3637;51.494;11.958;2023-02-15T19:05:16;13.70;;;8.17;;
7191;SDS011;3637;51.494;11.958;2023-02-15T19:08:18;11.77;;;6.77;;
7191;SDS011;3637;51.494;11.958;2023-02-15T19:11:23;9.67;;;6.30;;
7191;SDS011;3637;51.494;11.958;2023-02-15T19:14:29;10.10;;;6.93;;
7191;SDS011;3637;51.494;11.958;2023-02-15T19:17:33;18.50;;;6.93;;
7191;SDS011;3637;51.494;11.958;2023-02-15T19:20:39;11.13;;;6.47;;
7191;SDS011;3637;51.494;11.958;2023-02-15T19:23:45;9.07;;;6.03;;
7191;SDS011;3637;51.494;11.958;2023-02-15T19:26:53;12.00;;;6.23;;